sensor_id;sensor_type;location;lat;lon;timestamp;P1;durP1;ratioP1;P2;durP2;ratioP2
41631;SDS011;37452;51.938;4.624;2023-04-03T00:02:37;5.60;;;1.20;;
41631;SDS011;37452;51.938;4.624;2023-04-03T00:05:02;2.80;;;1.07;;
41631;SDS011;37452;51.938;4.624;2023-04-03T00:07:29;1.67;;;1.13;;
41631;SDS011;37452;51.938;4.624;2023-04-03T00:09:54;2.83;;;0.83;;
41631;SDS011;37452;51.938;4.624;2023-04-03T00:12:20;3.70;;;1.10;;
41631;SDS011;37452;51.938;4.624;2023-04-03T00:14:45;8.77;;;1.27;;
41631;SDS011;37452;51.938;4.624;2023-04-03T00:17:11;1.87;;;1.20;;
41631;SDS011;37452;51.938;4.624;2023-04-03T00:19:36;2.67;;;1.00;;
41631;SDS011;37452;51.938;4.624;2023-04-03T00:22:01;2.10;;;1.20;;
41631;SDS011;37452;51.938;4.624;2023-04-03T00:24:27;1.60;;;0.90;;
41631;SDS011;37452;51.938;4.624;2023-04-03T00:26:52;2.53;;;0.90;;
41631;SDS011;37452;51.938;4.624;2023-04-03T00:29:17;2.73;;;1.03;;
41631;SDS011;37452;51.938;4.624;2023-04-03T00:31:42;4.37;;;1.20;;
41631;SDS011;37452;51.938;4.624;2023-04-03T00:34:08;2.67;;;1.17;;
41631;SDS011;37452;51.938;4.624;2023-04-03T00:36:33;3.50;;;1.30;;
41631;SDS011;37452;51.938;4.624;2023-04-03T00:38:59;3.30;;;1.00;;
41631;SDS011;37452;51.938;4.624;2023-04-03T00:41:24;6.90;;;1.30;;
41631;SDS011;37452;51.938;4.624;2023-04-03T00:46:15;2.63;;;1.30;;
41631;SDS011;37452;51.938;4.624;2023-04-03T00:48:42;5.13;;;1.40;;
41631;SDS011;37452;51.938;4.624;2023-04-03T00:51:30;5.13;;;1.10;;
41631;SDS011;37452;51.938;4.624;2023-04-03T00:53:56;2.23;;;1.10;;
41631;SDS011;37452;51.938;4.624;2023-04-03T00:56:26;1.73;;;0.87;;
41631;SDS011;37452;51.938;4.624;2023-04-03T00:58:56;3.83;;;1.33;;
41631;SDS011;37452;51.938;4.624;2023-04-03T01:01:26;2.37;;;1.00;;
41631;SDS011;37452;51.938;4.624;2023-04-03T01:03:53;1.90;;;0.80;;
41631;SDS011;37452;51.938;4.624;2023-04-03T01:06:26;3.83;;;1.33;;
41631;SDS011;37452;51.938;4.624;2023-04-03T01:08:53;2.70;;;0.90;;
41631;SDS011;37452;51.938;4.624;2023-04-03T01:11:20;2.37;;;1.10;;
41631;SDS011;37452;51.938;4.624;2023-04-03T01:13:45;2.63;;;1.10;;
41631;SDS011;37452;51.938;4.624;2023-04-03T01:16:11;5.90;;;1.33;;
41631;SDS011;37452;51.938;4.624;2023-04-03T01:18:37;2.80;;;1.27;;
41631;SDS011;37452;51.938;4.624;2023-04-03T01:26:17;3.20;;;1.07;;
41631;SDS011;37452;51.938;4.624;2023-04-03T01:28:43;2.77;;;1.27;;
41631;SDS011;37452;51.938;4.624;2023-04-03T01:31:14;2.70;;;1.40;;
41631;SDS011;37452;51.938;4.624;2023-04-03T01:33:55;2.80;;;1.25;;
41631;SDS011;37452;51.938;4.624;2023-04-03T01:36:24;3.67;;;1.20;;
41631;SDS011;37452;51.938;4.624;2023-04-03T01:38:52;3.17;;;1.10;;
41631;SDS011;37452;51.938;4.624;2023-04-03T01:41:18;3.43;;;1.20;;
41631;SDS011;37452;51.938;4.624;2023-04-03T01:43:43;4.33;;;1.20;;
41631;SDS011;37452;51.938;4.624;2023-04-03T01:46:09;3.53;;;1.40;;
41631;SDS011;37452;51.938;4.624;2023-04-03T01:48:35;1.57;;;0.80;;
41631;SDS011;37452;51.938;4.624;2023-04-03T01:51:00;3.00;;;1.10;;
41631;SDS011;37452;51.938;4.624;2023-04-03T01:53:25;2.93;;;1.10;;
41631;SDS011;37452;51.938;4.624;2023-04-03T01:55:51;1.97;;;1.10;;
41631;SDS011;37452;51.938;4.624;2023-04-03T01:58:16;2.53;;;1.10;;
41631;SDS011;37452;51.938;4.624;2023-04-03T02:00:41;2.90;;;1.40;;
41631;SDS011;37452;51.938;4.624;2023-04-03T02:03:07;5.20;;;1.33;;
41631;SDS011;37452;51.938;4.624;2023-04-03T02:05:33;2.47;;;1.20;;
41631;SDS011;37452;51.938;4.624;2023-04-03T02:07:58;2.57;;;1.63;;
41631;SDS011;37452;51.938;4.624;2023-04-03T02:10:24;5.00;;;1.60;;
41631;SDS011;37452;51.938;4.624;2023-04-03T02:12:49;2.50;;;1.20;;
41631;SDS011;37452;51.938;4.624;2023-04-03T02:15:15;2.73;;;1.17;;
41631;SDS011;37452;51.938;4.624;2023-04-03T02:17:41;2.43;;;1.20;;
41631;SDS011;37452;51.938;4.624;2023-04-03T02:22:32;2.13;;;0.80;;
41631;SDS011;37452;51.938;4.624;2023-04-03T02:24:57;4.10;;;1.40;;
41631;SDS011;37452;51.938;4.624;2023-04-03T02:27:22;3.80;;;1.20;;
41631;SDS011;37452;51.938;4.624;2023-04-03T02:29:48;3.10;;;1.30;;
41631;SDS011;37452;51.938;4.624;2023-04-03T02:32:13;4.83;;;1.20;;
41631;SDS011;37452;51.938;4.624;2023-04-03T02:34:38;2.57;;;1.10;;
41631;SDS011;37452;51.938;4.624;2023-04-03T02:37:04;2.43;;;0.90;;
41631;SDS011;37452;51.938;4.624;2023-04-03T02:39:30;3.07;;;1.10;;
41631;SDS011;37452;51.938;4.624;2023-04-03T02:41:55;3.13;;;1.40;;
41631;SDS011;37452;51.938;4.624;2023-04-03T02:44:20;2.43;;;1.30;;
41631;SDS011;37452;51.938;4.624;2023-04-03T02:46:46;4.23;;;1.30;;
41631;SDS011;37452;51.938;4.624;2023-04-03T02:49:11;3.83;;;1.10;;
41631;SDS011;37452;51.938;4.624;2023-04-03T02:51:37;3.73;;;1.70;;
41631;SDS011;37452;51.938;4.624;2023-04-03T02:54:02;2.67;;;1.30;;
41631;SDS011;37452;51.938;4.624;2023-04-03T02:56:27;2.70;;;1.43;;
41631;SDS011;37452;51.938;4.624;2023-04-03T02:58:53;2.47;;;0.97;;
41631;SDS011;37452;51.938;4.624;2023-04-03T03:01:18;2.30;;;1.20;;
41631;SDS011;37452;51.938;4.624;2023-04-03T03:03:44;2.97;;;1.20;;
41631;SDS011;37452;51.938;4.624;2023-04-03T03:06:13;3.47;;;1.40;;
41631;SDS011;37452;51.938;4.624;2023-04-03T03:08:40;3.50;;;1.47;;
41631;SDS011;37452;51.938;4.624;2023-04-03T03:11:06;5.40;;;1.50;;
41631;SDS011;37452;51.938;4.624;2023-04-03T03:13:32;4.10;;;1.30;;
41631;SDS011;37452;51.938;4.624;2023-04-03T03:15:58;1.93;;;1.27;;
41631;SDS011;37452;51.938;4.624;2023-04-03T03:18:24;2.47;;;1.13;;
41631;SDS011;37452;51.938;4.624;2023-04-03T03:20:54;3.53;;;1.40;;
41631;SDS011;37452;51.938;4.624;2023-04-03T03:23:20;3.30;;;1.40;;
41631;SDS011;37452;51.938;4.624;2023-04-03T03:25:47;3.03;;;1.07;;
41631;SDS011;37452;51.938;4.624;2023-04-03T03:28:19;4.33;;;1.17;;
41631;SDS011;37452;51.938;4.624;2023-04-03T03:30:44;5.40;;;1.20;;
41631;SDS011;37452;51.938;4.624;2023-04-03T03:33:10;2.83;;;1.30;;
41631;SDS011;37452;51.938;4.624;2023-04-03T03:35:35;4.07;;;1.10;;
41631;SDS011;37452;51.938;4.624;2023-04-03T03:38:01;4.40;;;1.47;;
41631;SDS011;37452;51.938;4.624;2023-04-03T03:40:26;2.80;;;1.27;;
41631;SDS011;37452;51.938;4.624;2023-04-03T03:42:51;3.07;;;1.40;;
41631;SDS011;37452;51.938;4.624;2023-04-03T03:45:16;5.37;;;1.50;;
41631;SDS011;37452;51.938;4.624;2023-04-03T03:47:42;4.40;;;1.80;;
41631;SDS011;37452;51.938;4.624;2023-04-03T03:50:08;1.63;;;1.00;;
41631;SDS011;37452;51.938;4.624;2023-04-03T03:52:33;3.57;;;1.30;;
41631;SDS011;37452;51.938;4.624;2023-04-03T03:54:59;3.60;;;1.47;;
41631;SDS011;37452;51.938;4.624;2023-04-03T03:57:24;2.80;;;1.17;;
41631;SDS011;37452;51.938;4.624;2023-04-03T03:59:51;3.03;;;1.30;;
41631;SDS011;37452;51.938;4.624;2023-04-03T04:02:17;3.97;;;1.40;;
41631;SDS011;37452;51.938;4.624;2023-04-03T04:04:43;5.13;;;1.73;;
41631;SDS011;37452;51.938;4.624;2023-04-03T04:07:08;3.40;;;1.53;;
41631;SDS011;37452;51.938;4.624;2023-04-03T04:09:33;3.50;;;1.60;;
41631;SDS011;37452;51.938;4.624;2023-04-03T04:11:59;2.63;;;1.30;;
41631;SDS011;37452;51.938;4.624;2023-04-03T04:14:24;7.63;;;1.77;;
41631;SDS011;37452;51.938;4.624;2023-04-03T04:16:50;4.37;;;2.20;;
41631;SDS011;37452;51.938;4.624;2023-04-03T04:19:15;6.00;;;1.40;;
41631;SDS011;37452;51.938;4.624;2023-04-03T04:21:40;4.17;;;1.77;;
41631;SDS011;37452;51.938;4.624;2023-04-03T04:24:06;3.13;;;1.47;;
41631;SDS011;37452;51.938;4.624;2023-04-03T04:26:32;3.30;;;1.30;;
41631;SDS011;37452;51.938;4.624;2023-04-03T04:28:58;2.43;;;1.03;;
41631;SDS011;37452;51.938;4.624;2023-04-03T04:31:23;3.73;;;1.23;;
41631;SDS011;37452;51.938;4.624;2023-04-03T04:33:48;2.37;;;1.30;;
41631;SDS011;37452;51.938;4.624;2023-04-03T04:36:14;2.53;;;1.33;;
41631;SDS011;37452;51.938;4.624;2023-04-03T04:38:39;2.00;;;1.27;;
41631;SDS011;37452;51.938;4.624;2023-04-03T04:41:05;2.73;;;1.30;;
41631;SDS011;37452;51.938;4.624;2023-04-03T04:43:31;2.93;;;1.47;;
41631;SDS011;37452;51.938;4.624;2023-04-03T04:48:29;6.00;;;1.30;;
41631;SDS011;37452;51.938;4.624;2023-04-03T04:50:54;3.17;;;1.20;;
41631;SDS011;37452;51.938;4.624;2023-04-03T04:53:20;5.37;;;1.63;;
41631;SDS011;37452;51.938;4.624;2023-04-03T04:55:45;3.20;;;1.53;;
41631;SDS011;37452;51.938;4.624;2023-04-03T04:58:10;3.20;;;1.53;;
41631;SDS011;37452;51.938;4.624;2023-04-03T05:00:36;4.47;;;1.90;;
41631;SDS011;37452;51.938;4.624;2023-04-03T05:03:01;6.00;;;2.23;;
41631;SDS011;37452;51.938;4.624;2023-04-03T05:05:26;5.47;;;1.83;;
41631;SDS011;37452;51.938;4.624;2023-04-03T05:07:52;3.60;;;1.77;;
41631;SDS011;37452;51.938;4.624;2023-04-03T05:10:18;5.03;;;1.63;;
41631;SDS011;37452;51.938;4.624;2023-04-03T05:12:43;5.13;;;1.90;;
41631;SDS011;37452;51.938;4.624;2023-04-03T05:15:08;5.73;;;1.83;;
41631;SDS011;37452;51.938;4.624;2023-04-03T05:17:34;4.67;;;1.90;;
41631;SDS011;37452;51.938;4.624;2023-04-03T05:19:59;2.87;;;1.63;;
41631;SDS011;37452;51.938;4.624;2023-04-03T05:22:25;5.97;;;1.70;;
41631;SDS011;37452;51.938;4.624;2023-04-03T05:24:50;3.57;;;1.57;;
41631;SDS011;37452;51.938;4.624;2023-04-03T05:27:15;3.77;;;1.63;;
41631;SDS011;37452;51.938;4.624;2023-04-03T05:29:41;3.10;;;1.50;;
41631;SDS011;37452;51.938;4.624;2023-04-03T05:32:08;4.60;;;2.10;;
41631;SDS011;37452;51.938;4.624;2023-04-03T05:34:34;6.33;;;1.80;;
41631;SDS011;37452;51.938;4.624;2023-04-03T05:37:00;2.93;;;1.53;;
41631;SDS011;37452;51.938;4.624;2023-04-03T05:39:25;3.73;;;1.40;;
41631;SDS011;37452;51.938;4.624;2023-04-03T05:41:53;6.23;;;2.17;;
41631;SDS011;37452;51.938;4.624;2023-04-03T05:44:18;4.83;;;2.00;;
41631;SDS011;37452;51.938;4.624;2023-04-03T05:46:43;4.33;;;1.83;;
41631;SDS011;37452;51.938;4.624;2023-04-03T05:49:09;2.80;;;1.60;;
41631;SDS011;37452;51.938;4.624;2023-04-03T05:51:35;6.10;;;1.40;;
41631;SDS011;37452;51.938;4.624;2023-04-03T05:54:03;5.87;;;1.70;;
41631;SDS011;37452;51.938;4.624;2023-04-03T05:56:35;3.13;;;1.50;;
41631;SDS011;37452;51.938;4.624;2023-04-03T05:59:00;6.17;;;1.70;;
41631;SDS011;37452;51.938;4.624;2023-04-03T06:01:25;4.03;;;1.83;;
41631;SDS011;37452;51.938;4.624;2023-04-03T06:03:51;5.87;;;1.90;;
41631;SDS011;37452;51.938;4.624;2023-04-03T06:06:16;4.10;;;1.63;;
41631;SDS011;37452;51.938;4.624;2023-04-03T06:08:42;2.87;;;1.37;;
41631;SDS011;37452;51.938;4.624;2023-04-03T06:11:08;3.50;;;1.73;;
41631;SDS011;37452;51.938;4.624;2023-04-03T06:13:34;3.67;;;1.93;;
41631;SDS011;37452;51.938;4.624;2023-04-03T06:16:00;2.73;;;1.67;;
41631;SDS011;37452;51.938;4.624;2023-04-03T06:18:25;5.77;;;1.70;;
41631;SDS011;37452;51.938;4.624;2023-04-03T06:20:51;4.40;;;1.37;;
41631;SDS011;37452;51.938;4.624;2023-04-03T06:23:16;4.67;;;1.90;;
41631;SDS011;37452;51.938;4.624;2023-04-03T06:25:42;4.07;;;1.67;;
41631;SDS011;37452;51.938;4.624;2023-04-03T06:28:08;5.07;;;2.00;;
41631;SDS011;37452;51.938;4.624;2023-04-03T06:30:35;4.63;;;1.50;;
41631;SDS011;37452;51.938;4.624;2023-04-03T06:33:01;3.93;;;1.50;;
41631;SDS011;37452;51.938;4.624;2023-04-03T06:35:26;2.83;;;1.50;;
41631;SDS011;37452;51.938;4.624;2023-04-03T06:37:53;3.23;;;1.50;;
41631;SDS011;37452;51.938;4.624;2023-04-03T06:40:21;2.60;;;1.17;;
41631;SDS011;37452;51.938;4.624;2023-04-03T06:42:49;5.90;;;1.63;;
41631;SDS011;37452;51.938;4.624;2023-04-03T06:45:15;6.40;;;1.53;;
41631;SDS011;37452;51.938;4.624;2023-04-03T06:47:40;4.77;;;1.83;;
41631;SDS011;37452;51.938;4.624;2023-04-03T06:50:06;4.93;;;1.50;;
41631;SDS011;37452;51.938;4.624;2023-04-03T06:52:32;4.47;;;1.27;;
41631;SDS011;37452;51.938;4.624;2023-04-03T06:54:57;3.90;;;1.80;;
41631;SDS011;37452;51.938;4.624;2023-04-03T06:57:24;6.40;;;1.93;;
41631;SDS011;37452;51.938;4.624;2023-04-03T06:59:50;4.93;;;1.70;;
41631;SDS011;37452;51.938;4.624;2023-04-03T07:02:16;6.07;;;2.30;;
41631;SDS011;37452;51.938;4.624;2023-04-03T07:04:41;5.40;;;1.40;;
41631;SDS011;37452;51.938;4.624;2023-04-03T07:07:07;4.60;;;1.70;;
41631;SDS011;37452;51.938;4.624;2023-04-03T07:09:32;2.77;;;1.20;;
41631;SDS011;37452;51.938;4.624;2023-04-03T07:11:58;4.70;;;1.50;;
41631;SDS011;37452;51.938;4.624;2023-04-03T07:14:23;7.13;;;1.70;;
41631;SDS011;37452;51.938;4.624;2023-04-03T07:16:48;4.83;;;1.70;;
41631;SDS011;37452;51.938;4.624;2023-04-03T07:19:14;3.57;;;1.33;;
41631;SDS011;37452;51.938;4.624;2023-04-03T07:24:06;2.10;;;0.82;;
41631;SDS011;37452;51.938;4.624;2023-04-03T07:28:57;6.20;;;1.20;;
41631;SDS011;37452;51.938;4.624;2023-04-03T07:31:23;5.37;;;1.43;;
41631;SDS011;37452;51.938;4.624;2023-04-03T07:33:48;4.23;;;1.10;;
41631;SDS011;37452;51.938;4.624;2023-04-03T07:36:18;5.07;;;1.53;;
41631;SDS011;37452;51.938;4.624;2023-04-03T07:38:44;3.03;;;1.37;;
41631;SDS011;37452;51.938;4.624;2023-04-03T07:41:17;3.93;;;1.30;;
41631;SDS011;37452;51.938;4.624;2023-04-03T07:43:44;4.97;;;1.47;;
41631;SDS011;37452;51.938;4.624;2023-04-03T07:46:11;4.37;;;1.50;;
41631;SDS011;37452;51.938;4.624;2023-04-03T07:48:37;4.40;;;1.53;;
41631;SDS011;37452;51.938;4.624;2023-04-03T07:51:03;4.80;;;1.57;;
41631;SDS011;37452;51.938;4.624;2023-04-03T07:53:29;6.17;;;1.70;;
41631;SDS011;37452;51.938;4.624;2023-04-03T07:55:56;3.83;;;1.30;;
41631;SDS011;37452;51.938;4.624;2023-04-03T07:58:23;7.60;;;1.43;;
41631;SDS011;37452;51.938;4.624;2023-04-03T08:00:48;4.47;;;1.40;;
41631;SDS011;37452;51.938;4.624;2023-04-03T08:03:14;3.27;;;1.10;;
41631;SDS011;37452;51.938;4.624;2023-04-03T08:05:42;3.00;;;1.17;;
41631;SDS011;37452;51.938;4.624;2023-04-03T08:08:09;3.87;;;1.30;;
41631;SDS011;37452;51.938;4.624;2023-04-03T08:10:36;6.73;;;1.40;;
41631;SDS011;37452;51.938;4.624;2023-04-03T08:13:02;5.27;;;1.57;;
41631;SDS011;37452;51.938;4.624;2023-04-03T08:15:29;6.33;;;1.93;;
41631;SDS011;37452;51.938;4.624;2023-04-03T08:17:55;6.97;;;1.20;;
41631;SDS011;37452;51.938;4.624;2023-04-03T08:20:21;5.50;;;1.52;;
41631;SDS011;37452;51.938;4.624;2023-04-03T08:22:46;5.93;;;1.65;;
41631;SDS011;37452;51.938;4.624;2023-04-03T08:25:12;5.37;;;1.43;;
41631;SDS011;37452;51.938;4.624;2023-04-03T08:27:37;4.30;;;1.40;;
41631;SDS011;37452;51.938;4.624;2023-04-03T08:30:03;4.30;;;1.35;;
41631;SDS011;37452;51.938;4.624;2023-04-03T08:32:29;5.68;;;2.13;;
41631;SDS011;37452;51.938;4.624;2023-04-03T08:34:54;7.75;;;2.00;;
41631;SDS011;37452;51.938;4.624;2023-04-03T08:37:20;6.18;;;1.75;;
41631;SDS011;37452;51.938;4.624;2023-04-03T08:39:46;3.92;;;1.38;;
41631;SDS011;37452;51.938;4.624;2023-04-03T08:42:19;3.58;;;1.17;;
41631;SDS011;37452;51.938;4.624;2023-04-03T08:44:52;2.83;;;1.17;;
41631;SDS011;37452;51.938;4.624;2023-04-03T08:47:42;5.78;;;1.65;;
41631;SDS011;37452;51.938;4.624;2023-04-03T08:50:18;2.22;;;1.15;;
41631;SDS011;37452;51.938;4.624;2023-04-03T08:52:52;5.47;;;1.10;;
41631;SDS011;37452;51.938;4.624;2023-04-03T09:00:30;5.03;;;1.23;;
41631;SDS011;37452;51.938;4.624;2023-04-03T09:03:02;5.22;;;1.50;;
41631;SDS011;37452;51.938;4.624;2023-04-03T09:05:31;2.90;;;0.70;;
41631;SDS011;37452;51.938;4.624;2023-04-03T09:08:09;3.88;;;0.90;;
41631;SDS011;37452;51.938;4.624;2023-04-03T09:10:44;3.72;;;1.02;;
41631;SDS011;37452;51.938;4.624;2023-04-03T09:13:53;3.83;;;0.88;;
41631;SDS011;37452;51.938;4.624;2023-04-03T09:16:06;2.92;;;0.80;;
41631;SDS011;37452;51.938;4.624;2023-04-03T09:18:57;1.50;;;0.80;;
41631;SDS011;37452;51.938;4.624;2023-04-03T09:21:38;4.53;;;1.10;;
41631;SDS011;37452;51.938;4.624;2023-04-03T09:24:07;4.72;;;0.90;;
41631;SDS011;37452;51.938;4.624;2023-04-03T09:29:24;2.38;;;1.00;;
41631;SDS011;37452;51.938;4.624;2023-04-03T09:31:52;1.40;;;0.40;;
41631;SDS011;37452;51.938;4.624;2023-04-03T09:34:29;2.28;;;1.02;;
41631;SDS011;37452;51.938;4.624;2023-04-03T09:37:01;2.97;;;1.10;;
41631;SDS011;37452;51.938;4.624;2023-04-03T09:39:31;4.60;;;0.88;;
41631;SDS011;37452;51.938;4.624;2023-04-03T09:44:30;1.98;;;0.60;;
41631;SDS011;37452;51.938;4.624;2023-04-03T09:46:57;4.68;;;0.60;;
41631;SDS011;37452;51.938;4.624;2023-04-03T09:49:23;1.48;;;0.70;;
41631;SDS011;37452;51.938;4.624;2023-04-03T09:51:48;1.60;;;0.40;;
41631;SDS011;37452;51.938;4.624;2023-04-03T09:57:09;2.85;;;0.55;;
41631;SDS011;37452;51.938;4.624;2023-04-03T09:59:41;1.17;;;0.63;;
41631;SDS011;37452;51.938;4.624;2023-04-03T10:04:57;0.73;;;0.40;;
41631;SDS011;37452;51.938;4.624;2023-04-03T10:07:33;2.50;;;0.30;;
41631;SDS011;37452;51.938;4.624;2023-04-03T10:10:16;4.47;;;0.70;;
41631;SDS011;37452;51.938;4.624;2023-04-03T10:12:48;1.60;;;0.45;;
41631;SDS011;37452;51.938;4.624;2023-04-03T10:15:17;3.40;;;1.20;;
41631;SDS011;37452;51.938;4.624;2023-04-03T10:23:20;1.50;;;0.63;;
41631;SDS011;37452;51.938;4.624;2023-04-03T10:26:11;2.75;;;0.60;;
41631;SDS011;37452;51.938;4.624;2023-04-03T10:28:57;2.33;;;0.30;;
41631;SDS011;37452;51.938;4.624;2023-04-03T10:31:46;1.13;;;0.40;;
41631;SDS011;37452;51.938;4.624;2023-04-03T10:34:24;2.15;;;0.80;;
41631;SDS011;37452;51.938;4.624;2023-04-03T10:39:39;1.30;;;0.60;;
41631;SDS011;37452;51.938;4.624;2023-04-03T10:47:51;2.30;;;0.60;;
41631;SDS011;37452;51.938;4.624;2023-04-03T11:01:09;1.40;;;0.52;;
41631;SDS011;37452;51.938;4.624;2023-04-03T11:03:45;0.90;;;0.40;;
41631;SDS011;37452;51.938;4.624;2023-04-03T11:06:15;0.63;;;0.20;;
41631;SDS011;37452;51.938;4.624;2023-04-03T11:08:46;3.30;;;0.68;;
41631;SDS011;37452;51.938;4.624;2023-04-03T11:11:30;0.68;;;0.30;;
41631;SDS011;37452;51.938;4.624;2023-04-03T11:14:00;1.85;;;0.20;;
41631;SDS011;37452;51.938;4.624;2023-04-03T11:16:28;0.68;;;0.25;;
41631;SDS011;37452;51.938;4.624;2023-04-03T11:21:40;0.90;;;0.30;;
41631;SDS011;37452;51.938;4.624;2023-04-03T11:24:22;2.75;;;0.50;;
41631;SDS011;37452;51.938;4.624;2023-04-03T11:26:52;2.25;;;0.40;;
41631;SDS011;37452;51.938;4.624;2023-04-03T11:29:22;0.57;;;0.22;;
41631;SDS011;37452;51.938;4.624;2023-04-03T11:34:49;6.43;;;0.70;;
41631;SDS011;37452;51.938;4.624;2023-04-03T11:37:27;3.58;;;0.50;;
41631;SDS011;37452;51.938;4.624;2023-04-03T11:40:06;0.60;;;0.22;;
41631;SDS011;37452;51.938;4.624;2023-04-03T11:42:46;1.55;;;0.40;;
41631;SDS011;37452;51.938;4.624;2023-04-03T12:19:01;0.80;;;0.32;;
41631;SDS011;37452;51.938;4.624;2023-04-03T12:26:30;1.00;;;0.43;;
41631;SDS011;37452;51.938;4.624;2023-04-03T12:29:01;1.75;;;0.50;;
41631;SDS011;37452;51.938;4.624;2023-04-03T12:45:21;1.23;;;0.30;;
41631;SDS011;37452;51.938;4.624;2023-04-03T12:47:49;1.75;;;0.45;;
41631;SDS011;37452;51.938;4.624;2023-04-03T12:50:27;1.40;;;0.57;;
41631;SDS011;37452;51.938;4.624;2023-04-03T12:55:42;1.75;;;0.60;;
41631;SDS011;37452;51.938;4.624;2023-04-03T12:58:19;2.15;;;0.63;;
41631;SDS011;37452;51.938;4.624;2023-04-03T13:00:48;4.45;;;0.52;;
41631;SDS011;37452;51.938;4.624;2023-04-03T13:03:26;1.52;;;0.57;;
41631;SDS011;37452;51.938;4.624;2023-04-03T13:06:01;5.38;;;0.47;;
41631;SDS011;37452;51.938;4.624;2023-04-03T13:08:28;6.30;;;0.80;;
41631;SDS011;37452;51.938;4.624;2023-04-03T13:10:57;3.00;;;0.90;;
41631;SDS011;37452;51.938;4.624;2023-04-03T13:13:26;2.55;;;0.70;;
41631;SDS011;37452;51.938;4.624;2023-04-03T13:15:52;3.08;;;0.70;;
41631;SDS011;37452;51.938;4.624;2023-04-03T13:18:36;1.25;;;0.47;;
41631;SDS011;37452;51.938;4.624;2023-04-03T13:23:30;3.25;;;0.90;;
41631;SDS011;37452;51.938;4.624;2023-04-03T13:25:57;4.38;;;0.50;;
41631;SDS011;37452;51.938;4.624;2023-04-03T13:28:27;4.10;;;0.60;;
41631;SDS011;37452;51.938;4.624;2023-04-03T13:31:03;2.67;;;0.73;;
41631;SDS011;37452;51.938;4.624;2023-04-03T13:33:31;1.67;;;0.60;;
41631;SDS011;37452;51.938;4.624;2023-04-03T13:36:06;2.38;;;0.70;;
41631;SDS011;37452;51.938;4.624;2023-04-03T13:38:41;1.35;;;0.57;;
41631;SDS011;37452;51.938;4.624;2023-04-03T13:41:23;4.68;;;0.88;;
41631;SDS011;37452;51.938;4.624;2023-04-03T13:44:14;2.22;;;0.70;;
41631;SDS011;37452;51.938;4.624;2023-04-03T13:46:58;2.45;;;0.77;;
41631;SDS011;37452;51.938;4.624;2023-04-03T13:49:34;3.15;;;0.70;;
41631;SDS011;37452;51.938;4.624;2023-04-03T13:54:54;1.73;;;0.73;;
41631;SDS011;37452;51.938;4.624;2023-04-03T13:57:24;3.03;;;0.75;;
41631;SDS011;37452;51.938;4.624;2023-04-03T13:59:49;1.65;;;0.63;;
41631;SDS011;37452;51.938;4.624;2023-04-03T14:04:59;2.58;;;0.55;;
41631;SDS011;37452;51.938;4.624;2023-04-03T14:07:26;1.98;;;0.68;;
41631;SDS011;37452;51.938;4.624;2023-04-03T14:09:54;2.70;;;0.75;;
41631;SDS011;37452;51.938;4.624;2023-04-03T14:14:54;2.77;;;0.67;;
41631;SDS011;37452;51.938;4.624;2023-04-03T14:17:22;3.63;;;0.70;;
41631;SDS011;37452;51.938;4.624;2023-04-03T14:19:50;5.77;;;0.73;;
41631;SDS011;37452;51.938;4.624;2023-04-03T14:22:21;3.23;;;1.23;;
41631;SDS011;37452;51.938;4.624;2023-04-03T14:24:51;1.90;;;0.63;;
41631;SDS011;37452;51.938;4.624;2023-04-03T14:29:46;1.65;;;0.60;;
41631;SDS011;37452;51.938;4.624;2023-04-03T14:32:14;3.43;;;0.90;;
41631;SDS011;37452;51.938;4.624;2023-04-03T14:34:42;2.17;;;0.70;;
41631;SDS011;37452;51.938;4.624;2023-04-03T14:37:28;1.65;;;0.55;;
41631;SDS011;37452;51.938;4.624;2023-04-03T14:39:56;4.75;;;0.63;;
41631;SDS011;37452;51.938;4.624;2023-04-03T14:42:24;4.88;;;0.70;;
41631;SDS011;37452;51.938;4.624;2023-04-03T14:44:52;2.55;;;0.73;;
41631;SDS011;37452;51.938;4.624;2023-04-03T14:47:23;1.92;;;0.60;;
41631;SDS011;37452;51.938;4.624;2023-04-03T14:49:51;3.35;;;0.85;;
41631;SDS011;37452;51.938;4.624;2023-04-03T14:52:24;2.70;;;0.63;;
41631;SDS011;37452;51.938;4.624;2023-04-03T14:54:52;3.00;;;0.88;;
41631;SDS011;37452;51.938;4.624;2023-04-03T14:57:18;3.80;;;1.20;;
41631;SDS011;37452;51.938;4.624;2023-04-03T14:59:53;1.75;;;0.80;;
41631;SDS011;37452;51.938;4.624;2023-04-03T15:04:57;1.25;;;0.52;;
41631;SDS011;37452;51.938;4.624;2023-04-03T15:07:23;1.80;;;0.75;;
41631;SDS011;37452;51.938;4.624;2023-04-03T15:09:50;2.00;;;0.90;;
41631;SDS011;37452;51.938;4.624;2023-04-03T15:12:16;1.90;;;0.90;;
41631;SDS011;37452;51.938;4.624;2023-04-03T15:14:42;2.10;;;0.90;;
41631;SDS011;37452;51.938;4.624;2023-04-03T15:17:10;3.08;;;0.80;;
41631;SDS011;37452;51.938;4.624;2023-04-03T15:19:41;2.85;;;0.73;;
41631;SDS011;37452;51.938;4.624;2023-04-03T15:22:06;4.50;;;0.95;;
41631;SDS011;37452;51.938;4.624;2023-04-03T15:24:31;1.37;;;0.60;;
41631;SDS011;37452;51.938;4.624;2023-04-03T15:26:57;2.88;;;0.80;;
41631;SDS011;37452;51.938;4.624;2023-04-03T15:31:48;2.33;;;0.93;;
41631;SDS011;37452;51.938;4.624;2023-04-03T15:34:14;2.50;;;0.93;;
41631;SDS011;37452;51.938;4.624;2023-04-03T15:36:41;3.92;;;0.85;;
41631;SDS011;37452;51.938;4.624;2023-04-03T15:39:06;3.03;;;0.90;;
41631;SDS011;37452;51.938;4.624;2023-04-03T15:41:31;2.42;;;0.65;;
41631;SDS011;37452;51.938;4.624;2023-04-03T15:43:57;2.47;;;0.80;;
41631;SDS011;37452;51.938;4.624;2023-04-03T15:46:22;3.23;;;0.97;;
41631;SDS011;37452;51.938;4.624;2023-04-03T15:51:14;2.77;;;1.20;;
41631;SDS011;37452;51.938;4.624;2023-04-03T15:53:39;3.67;;;1.00;;
41631;SDS011;37452;51.938;4.624;2023-04-03T15:56:05;3.73;;;0.90;;
41631;SDS011;37452;51.938;4.624;2023-04-03T15:58:30;2.40;;;0.97;;
41631;SDS011;37452;51.938;4.624;2023-04-03T16:00:56;3.40;;;1.03;;
41631;SDS011;37452;51.938;4.624;2023-04-03T16:03:21;1.47;;;0.80;;
41631;SDS011;37452;51.938;4.624;2023-04-03T16:05:49;5.03;;;1.50;;
41631;SDS011;37452;51.938;4.624;2023-04-03T16:08:14;3.43;;;1.20;;
41631;SDS011;37452;51.938;4.624;2023-04-03T16:10:42;4.67;;;1.10;;
41631;SDS011;37452;51.938;4.624;2023-04-03T16:13:10;3.30;;;1.00;;
41631;SDS011;37452;51.938;4.624;2023-04-03T16:15:35;2.45;;;0.93;;
41631;SDS011;37452;51.938;4.624;2023-04-03T16:18:01;1.67;;;0.90;;
41631;SDS011;37452;51.938;4.624;2023-04-03T16:20:27;1.97;;;1.10;;
41631;SDS011;37452;51.938;4.624;2023-04-03T16:22:53;4.10;;;1.10;;
41631;SDS011;37452;51.938;4.624;2023-04-03T16:25:20;2.43;;;1.03;;
41631;SDS011;37452;51.938;4.624;2023-04-03T16:27:45;3.58;;;1.27;;
41631;SDS011;37452;51.938;4.624;2023-04-03T16:30:11;4.00;;;1.10;;
41631;SDS011;37452;51.938;4.624;2023-04-03T16:35:03;5.15;;;1.40;;
41631;SDS011;37452;51.938;4.624;2023-04-03T16:37:29;3.00;;;1.20;;
41631;SDS011;37452;51.938;4.624;2023-04-03T16:39:55;1.97;;;0.70;;
41631;SDS011;37452;51.938;4.624;2023-04-03T16:42:20;4.33;;;1.10;;
41631;SDS011;37452;51.938;4.624;2023-04-03T16:44:46;2.90;;;0.97;;
41631;SDS011;37452;51.938;4.624;2023-04-03T16:49:38;2.95;;;0.93;;
41631;SDS011;37452;51.938;4.624;2023-04-03T16:52:04;4.83;;;1.63;;
41631;SDS011;37452;51.938;4.624;2023-04-03T16:54:30;3.87;;;1.00;;
41631;SDS011;37452;51.938;4.624;2023-04-03T16:56:57;7.47;;;1.60;;
41631;SDS011;37452;51.938;4.624;2023-04-03T16:59:22;1.97;;;0.80;;
41631;SDS011;37452;51.938;4.624;2023-04-03T17:01:48;2.83;;;1.03;;
41631;SDS011;37452;51.938;4.624;2023-04-03T17:04:14;4.60;;;1.27;;
41631;SDS011;37452;51.938;4.624;2023-04-03T17:06:40;4.67;;;1.17;;
41631;SDS011;37452;51.938;4.624;2023-04-03T17:09:05;6.57;;;1.10;;
41631;SDS011;37452;51.938;4.624;2023-04-03T17:11:31;5.37;;;1.10;;
41631;SDS011;37452;51.938;4.624;2023-04-03T17:13:57;3.77;;;1.10;;
41631;SDS011;37452;51.938;4.624;2023-04-03T17:16:23;2.37;;;0.93;;
41631;SDS011;37452;51.938;4.624;2023-04-03T17:18:49;5.13;;;1.03;;